sensor_id;sensor_type;location;lat;lon;timestamp;pressure;altitude;pressure_sealevel;temperature;humidity
45275;BME280;31019;43.780;25.948;2023-06-26T00:00:50;100731.13;;;20.28;100.00
45275;BME280;31019;43.780;25.948;2023-06-26T00:03:16;100728.72;;;20.21;100.00
45275;BME280;31019;43.780;25.948;2023-06-26T00:05:43;100731.94;;;20.28;100.00
45275;BME280;31019;43.780;25.948;2023-06-26T00:08:10;100717.38;;;20.29;100.00
45275;BME280;31019;43.780;25.948;2023-06-26T00:10:38;100723.03;;;20.33;100.00
45275;BME280;31019;43.780;25.948;2023-06-26T00:13:05;100737.06;;;20.20;100.00
45275;BME280;31019;43.780;25.948;2023-06-26T00:15:32;100724.66;;;20.08;100.00
45275;BME280;31019;43.780;25.948;2023-06-26T00:17:59;100729.78;;;20.15;100.00
45275;BME280;31019;43.780;25.948;2023-06-26T00:20:26;100729.78;;;20.10;100.00
45275;BME280;31019;43.780;25.948;2023-06-26T00:22:52;100722.22;;;20.17;100.00
45275;BME280;31019;43.780;25.948;2023-06-26T00:25:21;100718.75;;;20.22;100.00
45275;BME280;31019;43.780;25.948;2023-06-26T00:27:49;100715.75;;;20.28;100.00
45275;BME280;31019;43.780;25.948;2023-06-26T00:30:18;100713.88;;;20.24;100.00
45275;BME280;31019;43.780;25.948;2023-06-26T00:32:52;100716.25;;;20.51;100.00
45275;BME280;31019;43.780;25.948;2023-06-26T00:35:20;100713.59;;;20.46;100.00
45275;BME280;31019;43.780;25.948;2023-06-26T00:37:47;100709.81;;;20.31;100.00
45275;BME280;31019;43.780;25.948;2023-06-26T00:40:15;100712.50;;;20.42;100.00
45275;BME280;31019;43.780;25.948;2023-06-26T00:42:42;100708.47;;;20.34;100.00
45275;BME280;31019;43.780;25.948;2023-06-26T00:45:10;100714.94;;;20.43;100.00
45275;BME280;31019;43.780;25.948;2023-06-26T00:47:37;100701.47;;;20.28;100.00
45275;BME280;31019;43.780;25.948;2023-06-26T00:50:05;100713.34;;;20.22;100.00
45275;BME280;31019;43.780;25.948;2023-06-26T00:52:32;100706.59;;;20.40;100.00
45275;BME280;31019;43.780;25.948;2023-06-26T00:55:06;100705.50;;;20.20;100.00
45275;BME280;31019;43.780;25.948;2023-06-26T00:57:40;100708.75;;;20.43;100.00
45275;BME280;31019;43.780;25.948;2023-06-26T01:00:14;100706.28;;;20.51;100.00
45275;BME280;31019;43.780;25.948;2023-06-26T01:03:14;100704.97;;;20.33;100.00
45275;BME280;31019;43.780;25.948;2023-06-26T01:05:41;100704.16;;;20.43;100.00
45275;BME280;31019;43.780;25.948;2023-06-26T01:08:11;100702.53;;;20.32;100.00
45275;BME280;31019;43.780;25.948;2023-06-26T01:10:40;100707.41;;;20.25;100.00
45275;BME280;31019;43.780;25.948;2023-06-26T01:13:07;100704.97;;;20.23;100.00
45275;BME280;31019;43.780;25.948;2023-06-26T01:15:47;100710.63;;;20.27;100.00
45275;BME280;31019;43.780;25.948;2023-06-26T01:18:15;100719.53;;;20.43;100.00
45275;BME280;31019;43.780;25.948;2023-06-26T01:20:44;100714.16;;;20.53;100.00
45275;BME280;31019;43.780;25.948;2023-06-26T01:23:15;100720.06;;;20.45;100.00
45275;BME280;31019;43.780;25.948;2023-06-26T01:26:18;100715.22;;;20.36;100.00
45275;BME280;31019;43.780;25.948;2023-06-26T01:28:57;100722.22;;;20.43;100.00
45275;BME280;31019;43.780;25.948;2023-06-26T01:31:26;100716.03;;;20.37;100.00
45275;BME280;31019;43.780;25.948;2023-06-26T01:34:04;100719.28;;;20.34;100.00
45275;BME280;31019;43.780;25.948;2023-06-26T01:36:31;100716.03;;;20.32;100.00
45275;BME280;31019;43.780;25.948;2023-06-26T01:38:58;100721.94;;;20.24;100.00
45275;BME280;31019;43.780;25.948;2023-06-26T01:41:26;100715.22;;;20.36;100.00
45275;BME280;31019;43.780;25.948;2023-06-26T01:44:14;100716.56;;;20.29;100.00
45275;BME280;31019;43.780;25.948;2023-06-26T01:46:54;100708.19;;;20.00;100.00
45275;BME280;31019;43.780;25.948;2023-06-26T01:49:40;100716.28;;;20.35;100.00
45275;BME280;31019;43.780;25.948;2023-06-26T01:52:19;100713.59;;;19.79;100.00
45275;BME280;31019;43.780;25.948;2023-06-26T01:54:54;100712.53;;;20.01;100.00
45275;BME280;31019;43.780;25.948;2023-06-26T01:57:26;100714.97;;;20.12;100.00
45275;BME280;31019;43.780;25.948;2023-06-26T01:59:54;100721.97;;;19.98;100.00
45275;BME280;31019;43.780;25.948;2023-06-26T02:02:29;100718.19;;;20.14;100.00
45275;BME280;31019;43.780;25.948;2023-06-26T02:05:11;100714.66;;;20.09;100.00
45275;BME280;31019;43.780;25.948;2023-06-26T02:07:38;100719.00;;;20.25;100.00
45275;BME280;31019;43.780;25.948;2023-06-26T02:13:00;100710.91;;;20.20;100.00
45275;BME280;31019;43.780;25.948;2023-06-26T02:15:27;100710.66;;;20.22;100.00
45275;BME280;31019;43.780;25.948;2023-06-26T02:17:54;100711.72;;;20.05;100.00
45275;BME280;31019;43.780;25.948;2023-06-26T02:20:21;100708.22;;;20.10;100.00
45275;BME280;31019;43.780;25.948;2023-06-26T02:22:50;100713.34;;;20.22;100.00
45275;BME280;31019;43.780;25.948;2023-06-26T02:25:18;100705.78;;;20.19;100.00
45275;BME280;31019;43.780;25.948;2023-06-26T02:27:45;100706.59;;;20.14;100.00
45275;BME280;31019;43.780;25.948;2023-06-26T02:30:14;100703.63;;;20.16;100.00
45275;BME280;31019;43.780;25.948;2023-06-26T02:32:41;100708.75;;;20.12;100.00
45275;BME280;31019;43.780;25.948;2023-06-26T02:35:08;100699.31;;;20.14;100.00
45275;BME280;31019;43.780;25.948;2023-06-26T02:37:35;100702.56;;;20.17;100.00
45275;BME280;31019;43.780;25.948;2023-06-26T02:40:04;100710.91;;;20.20;100.00
45275;BME280;31019;43.780;25.948;2023-06-26T02:42:34;100702.72;;;19.49;100.00
45275;BME280;31019;43.780;25.948;2023-06-26T02:45:01;100711.84;;;19.48;100.00
45275;BME280;31019;43.780;25.948;2023-06-26T02:47:29;100710.88;;;19.84;100.00
45275;BME280;31019;43.780;25.948;2023-06-26T02:49:56;100706.56;;;19.78;100.00
45275;BME280;31019;43.780;25.948;2023-06-26T02:52:24;100719.25;;;20.13;100.00
45275;BME280;31019;43.780;25.948;2023-06-26T02:54:51;100718.19;;;20.14;100.00
45275;BME280;31019;43.780;25.948;2023-06-26T02:57:18;100710.09;;;20.09;100.00
45275;BME280;31019;43.780;25.948;2023-06-26T02:59:45;100710.91;;;20.10;100.00
45275;BME280;31019;43.780;25.948;2023-06-26T03:02:12;100718.19;;;20.20;100.00
45275;BME280;31019;43.780;25.948;2023-06-26T03:04:41;100704.97;;;20.13;100.00
45275;BME280;31019;43.780;25.948;2023-06-26T03:07:08;100711.72;;;20.16;100.00
45275;BME280;31019;43.780;25.948;2023-06-26T03:09:44;100712.78;;;19.89;100.00
45275;BME280;31019;43.780;25.948;2023-06-26T03:12:11;100710.38;;;19.98;100.00
45275;BME280;31019;43.780;25.948;2023-06-26T03:14:38;100716.84;;;20.17;100.00
45275;BME280;31019;43.780;25.948;2023-06-26T03:17:05;100717.38;;;19.99;100.00
45275;BME280;31019;43.780;25.948;2023-06-26T03:19:34;100709.81;;;19.85;100.00
45275;BME280;31019;43.780;25.948;2023-06-26T03:22:03;100709.28;;;19.83;100.00
45275;BME280;31019;43.780;25.948;2023-06-26T03:24:31;100715.75;;;20.03;100.00
45275;BME280;31019;43.780;25.948;2023-06-26T03:27:01;100716.84;;;20.02;100.00
45275;BME280;31019;43.780;25.948;2023-06-26T03:29:28;100708.72;;;19.97;100.00
45275;BME280;31019;43.780;25.948;2023-06-26T03:31:56;100708.19;;;19.84;100.00
45275;BME280;31019;43.780;25.948;2023-06-26T03:34:24;100709.81;;;19.85;100.00
45275;BME280;31019;43.780;25.948;2023-06-26T03:36:51;100704.97;;;19.82;100.00
45275;BME280;31019;43.780;25.948;2023-06-26T03:39:19;100700.91;;;19.75;100.00
45275;BME280;31019;43.780;25.948;2023-06-26T03:41:55;100712.25;;;19.82;100.00
45275;BME280;31019;43.780;25.948;2023-06-26T03:44:26;100695.50;;;19.70;100.00
45275;BME280;31019;43.780;25.948;2023-06-26T03:46:53;100705.50;;;20.00;100.00
45275;BME280;31019;43.780;25.948;2023-06-26T03:49:23;100699.31;;;20.14;100.00
45275;BME280;31019;43.780;25.948;2023-06-26T03:51:50;100702.56;;;20.22;100.00
45275;BME280;31019;43.780;25.948;2023-06-26T03:54:19;100700.38;;;19.98;100.00
45275;BME280;31019;43.780;25.948;2023-06-26T03:56:46;100694.72;;;20.15;100.00
45275;BME280;31019;43.780;25.948;2023-06-26T03:59:13;100704.41;;;19.90;100.00
45275;BME280;31019;43.780;25.948;2023-06-26T04:01:40;100704.97;;;20.08;100.00
45275;BME280;31019;43.780;25.948;2023-06-26T04:04:08;100698.50;;;19.99;100.00
45275;BME280;31019;43.780;25.948;2023-06-26T04:06:35;100700.41;;;20.19;100.00
45275;BME280;31019;43.780;25.948;2023-06-26T04:09:02;100698.50;;;20.29;100.00
45275;BME280;31019;43.780;25.948;2023-06-26T04:11:31;100704.16;;;20.38;100.00
45275;BME280;31019;43.780;25.948;2023-06-26T04:13:58;100708.47;;;20.34;100.00
45275;BME280;31019;43.780;25.948;2023-06-26T04:16:25;100702.25;;;20.59;100.00
45275;BME280;31019;43.780;25.948;2023-06-26T04:18:52;100707.91;;;20.47;100.00
45275;BME280;31019;43.780;25.948;2023-06-26T04:21:21;100707.94;;;20.52;100.00
45275;BME280;31019;43.780;25.948;2023-06-26T04:23:50;100708.47;;;20.65;100.00
45275;BME280;31019;43.780;25.948;2023-06-26T04:26:17;100706.31;;;20.67;100.00
45275;BME280;31019;43.780;25.948;2023-06-26T04:28:45;100702.22;;;20.69;100.00
45275;BME280;31019;43.780;25.948;2023-06-26T04:31:12;100712.00;;;20.55;100.00
45275;BME280;31019;43.780;25.948;2023-06-26T04:33:39;100708.22;;;20.61;100.00
45275;BME280;31019;43.780;25.948;2023-06-26T04:36:06;100703.63;;;20.46;100.00
45275;BME280;31019;43.780;25.948;2023-06-26T04:38:33;100706.56;;;20.60;100.00
45275;BME280;31019;43.780;25.948;2023-06-26T04:41:01;100706.03;;;20.38;100.00
45275;BME280;31019;43.780;25.948;2023-06-26T04:43:35;100711.13;;;20.75;100.00
45275;BME280;31019;43.780;25.948;2023-06-26T04:46:03;100708.47;;;20.59;100.00
45275;BME280;31019;43.780;25.948;2023-06-26T04:48:33;100705.25;;;20.32;100.00
45275;BME280;31019;43.780;25.948;2023-06-26T04:51:00;100710.31;;;20.74;100.00
45275;BME280;31019;43.780;25.948;2023-06-26T04:53:27;100712.72;;;20.81;100.00
45275;BME280;31019;43.780;25.948;2023-06-26T04:55:53;100709.00;;;20.41;100.00
45275;BME280;31019;43.780;25.948;2023-06-26T04:58:28;100715.47;;;20.66;100.00
45275;BME280;31019;43.780;25.948;2023-06-26T05:00:55;100716.47;;;21.00;100.00
45275;BME280;31019;43.780;25.948;2023-06-26T05:03:23;100722.44;;;20.87;100.00
45275;BME280;31019;43.780;25.948;2023-06-26T05:05:50;100705.88;;;21.14;100.00
45275;BME280;31019;43.780;25.948;2023-06-26T05:08:22;100719.66;;;21.13;100.00
45275;BME280;31019;43.780;25.948;2023-06-26T05:10:49;100720.50;;;21.03;100.00
45275;BME280;31019;43.780;25.948;2023-06-26T05:13:20;100724.94;;;20.53;100.00
45275;BME280;31019;43.780;25.948;2023-06-26T05:15:50;100727.94;;;21.32;100.00
45275;BME280;31019;43.780;25.948;2023-06-26T05:18:17;100720.91;;;20.61;100.00
45275;BME280;31019;43.780;25.948;2023-06-26T05:20:47;100724.94;;;20.53;100.00
45275;BME280;31019;43.780;25.948;2023-06-26T05:23:16;100726.28;;;20.35;100.00
45275;BME280;31019;43.780;25.948;2023-06-26T05:25:45;100734.91;;;20.47;100.00
45275;BME280;31019;43.780;25.948;2023-06-26T05:28:14;100731.66;;;20.30;100.00
45275;BME280;31019;43.780;25.948;2023-06-26T05:30:42;100734.63;;;20.69;100.00
45275;BME280;31019;43.780;25.948;2023-06-26T05:33:14;100736.53;;;20.64;100.00
45275;BME280;31019;43.780;25.948;2023-06-26T05:35:52;100733.97;;;21.18;100.00
45275;BME280;31019;43.780;25.948;2023-06-26T05:38:20;100731.56;;;21.07;100.00
45275;BME280;31019;43.780;25.948;2023-06-26T05:40:48;100739.13;;;21.04;100.00
45275;BME280;31019;43.780;25.948;2023-06-26T05:43:25;100741.03;;;20.99;100.00
45275;BME280;31019;43.780;25.948;2023-06-26T05:45:52;100746.00;;;21.46;100.00
45275;BME280;31019;43.780;25.948;2023-06-26T05:48:19;100741.56;;;21.01;100.00
45275;BME280;31019;43.780;25.948;2023-06-26T05:50:46;100738.41;;;21.54;100.00
45275;BME280;31019;43.780;25.948;2023-06-26T05:53:15;100736.63;;;21.78;100.00
45275;BME280;31019;43.780;25.948;2023-06-26T05:55:42;100736.69;;;21.68;100.00
45275;BME280;31019;43.780;25.948;2023-06-26T05:58:13;100738.09;;;21.60;100.00
45275;BME280;31019;43.780;25.948;2023-06-26T06:00:41;100727.97;;;21.81;100.00
45275;BME280;31019;43.780;25.948;2023-06-26T06:03:09;100733.56;;;21.50;100.00
45275;BME280;31019;43.780;25.948;2023-06-26T06:05:36;100743.97;;;21.02;100.00
45275;BME280;31019;43.780;25.948;2023-06-26T06:08:03;100737.72;;;21.77;100.00
45275;BME280;31019;43.780;25.948;2023-06-26T06:10:32;100742.44;;;21.56;100.00
45275;BME280;31019;43.780;25.948;2023-06-26T06:12:59;100740.88;;;21.94;100.00
45275;BME280;31019;43.780;25.948;2023-06-26T06:15:26;100736.81;;;21.92;100.00
45275;BME280;31019;43.780;25.948;2023-06-26T06:17:52;100736.00;;;21.47;100.00
45275;BME280;31019;43.780;25.948;2023-06-26T06:20:19;100735.78;;;21.33;100.00
45275;BME280;31019;43.780;25.948;2023-06-26T06:22:46;100734.03;;;21.63;100.00
45275;BME280;31019;43.780;25.948;2023-06-26T06:25:14;100735.03;;;21.77;100.00
45275;BME280;31019;43.780;25.948;2023-06-26T06:27:42;100733.91;;;21.28;100.00
45275;BME280;31019;43.780;25.948;2023-06-26T06:30:10;100733.56;;;21.95;100.00
45275;BME280;31019;43.780;25.948;2023-06-26T06:32:40;100736.31;;;22.82;100.00
45275;BME280;31019;43.780;25.948;2023-06-26T06:35:07;100728.34;;;22.96;100.00
45275;BME280;31019;43.780;25.948;2023-06-26T06:37:36;100719.97;;;23.17;100.00
45275;BME280;31019;43.780;25.948;2023-06-26T06:40:03;100719.59;;;23.04;100.00
45275;BME280;31019;43.780;25.948;2023-06-26T06:42:31;100727.88;;;23.13;100.00
45275;BME280;31019;43.780;25.948;2023-06-26T06:45:01;100730.34;;;23.34;100.00
45275;BME280;31019;43.780;25.948;2023-06-26T06:47:28;100725.72;;;23.53;100.00
45275;BME280;31019;43.780;25.948;2023-06-26T06:49:55;100730.97;;;23.25;100.00
45275;BME280;31019;43.780;25.948;2023-06-26T06:52:22;100720.59;;;23.75;100.00
45275;BME280;31019;43.780;25.948;2023-06-26T06:54:52;100725.69;;;23.77;100.00
45275;BME280;31019;43.780;25.948;2023-06-26T06:57:20;100723.94;;;23.86;100.00
45275;BME280;31019;43.780;25.948;2023-06-26T06:59:47;100724.25;;;24.17;100.00
45275;BME280;31019;43.780;25.948;2023-06-26T07:02:18;100725.19;;;23.94;100.00
45275;BME280;31019;43.780;25.948;2023-06-26T07:04:44;100727.41;;;24.38;100.00
45275;BME280;31019;43.780;25.948;2023-06-26T07:07:12;100725.75;;;24.42;100.00
45275;BME280;31019;43.780;25.948;2023-06-26T07:09:40;100727.28;;;24.62;100.00
45275;BME280;31019;43.780;25.948;2023-06-26T07:12:07;100725.50;;;24.85;100.00
45275;BME280;31019;43.780;25.948;2023-06-26T07:14:34;100728.09;;;24.63;100.00
45275;BME280;31019;43.780;25.948;2023-06-26T07:17:01;100722.47;;;24.59;100.00
45275;BME280;31019;43.780;25.948;2023-06-26T07:19:29;100722.81;;;24.39;100.00
45275;BME280;31019;43.780;25.948;2023-06-26T07:21:56;100731.44;;;24.87;100.00
45275;BME280;31019;43.780;25.948;2023-06-26T07:24:23;100721.31;;;25.21;100.00
45275;BME280;31019;43.780;25.948;2023-06-26T07:26:50;100722.78;;;24.99;100.00
45275;BME280;31019;43.780;25.948;2023-06-26T07:29:17;100715.84;;;25.07;100.00
45275;BME280;31019;43.780;25.948;2023-06-26T07:31:44;100724.25;;;25.61;100.00
45275;BME280;31019;43.780;25.948;2023-06-26T07:34:10;100725.38;;;25.46;100.00
45275;BME280;31019;43.780;25.948;2023-06-26T07:36:39;100710.81;;;25.64;100.00
45275;BME280;31019;43.780;25.948;2023-06-26T07:39:06;100719.41;;;25.94;100.00
45275;BME280;31019;43.780;25.948;2023-06-26T07:41:33;100718.59;;;25.21;100.00
45275;BME280;31019;43.780;25.948;2023-06-26T07:43:59;100719.53;;;25.39;100.00
45275;BME280;31019;43.780;25.948;2023-06-26T07:46:26;100722.06;;;25.71;100.00
45275;BME280;31019;43.780;25.948;2023-06-26T07:48:53;100718.63;;;25.79;100.00
45275;BME280;31019;43.780;25.948;2023-06-26T07:51:20;100718.84;;;25.83;100.00
45275;BME280;31019;43.780;25.948;2023-06-26T07:53:49;100724.78;;;26.08;100.00
45275;BME280;31019;43.780;25.948;2023-06-26T07:56:16;100718.91;;;25.78;100.00
45275;BME280;31019;43.780;25.948;2023-06-26T07:58:42;100713.84;;;25.99;100.00
45275;BME280;31019;43.780;25.948;2023-06-26T08:01:10;100722.25;;;25.89;100.00
45275;BME280;31019;43.780;25.948;2023-06-26T08:03:36;100726.09;;;25.74;100.00
45275;BME280;31019;43.780;25.948;2023-06-26T08:06:03;100716.88;;;25.97;100.00
45275;BME280;31019;43.780;25.948;2023-06-26T08:08:30;100716.31;;;26.09;100.00
45275;BME280;31019;43.780;25.948;2023-06-26T08:10:59;100713.09;;;26.30;100.00
45275;BME280;31019;43.780;25.948;2023-06-26T08:13:26;100709.72;;;27.04;100.00
45275;BME280;31019;43.780;25.948;2023-06-26T08:15:53;100715.91;;;27.27;100.00
45275;BME280;31019;43.780;25.948;2023-06-26T08:18:20;100714.78;;;26.79;100.00
45275;BME280;31019;43.780;25.948;2023-06-26T08:20:47;100708.06;;;26.85;100.00
45275;BME280;31019;43.780;25.948;2023-06-26T08:23:15;100716.84;;;26.73;100.00
45275;BME280;31019;43.780;25.948;2023-06-26T08:25:42;100710.25;;;26.66;100.00
45275;BME280;31019;43.780;25.948;2023-06-26T08:28:10;100715.59;;;26.80;100.00
45275;BME280;31019;43.780;25.948;2023-06-26T08:30:37;100710.38;;;26.30;100.00
45275;BME280;31019;43.780;25.948;2023-06-26T08:33:04;100720.47;;;26.38;100.00
45275;BME280;31019;43.780;25.948;2023-06-26T08:35:35;100707.78;;;26.56;100.00
45275;BME280;31019;43.780;25.948;2023-06-26T08:38:02;100710.94;;;26.80;100.00
45275;BME280;31019;43.780;25.948;2023-06-26T08:40:30;100712.59;;;26.99;100.00
45275;BME280;31019;43.780;25.948;2023-06-26T08:42:57;100710.28;;;27.32;100.00
45275;BME280;31019;43.780;25.948;2023-06-26T08:45:25;100708.44;;;27.01;100.00
45275;BME280;31019;43.780;25.948;2023-06-26T08:47:55;100712.06;;;26.48;100.00
45275;BME280;31019;43.780;25.948;2023-06-26T08:50:28;100709.31;;;26.17;100.00
45275;BME280;31019;43.780;25.948;2023-06-26T08:53:02;100693.75;;;26.40;100.00
45275;BME280;31019;43.780;25.948;2023-06-26T08:55:33;100701.53;;;26.24;100.00
45275;BME280;31019;43.780;25.948;2023-06-26T08:58:02;100698.94;;;26.50;100.00
45275;BME280;31019;43.780;25.948;2023-06-26T09:00:31;100702.63;;;26.85;100.00
45275;BME280;31019;43.780;25.948;2023-06-26T09:02:58;100703.16;;;27.05;100.00
45275;BME280;31019;43.780;25.948;2023-06-26T09:05:26;100706.19;;;26.94;100.00
45275;BME280;31019;43.780;25.948;2023-06-26T09:07:53;100694.09;;;26.47;100.00
45275;BME280;31019;43.780;25.948;2023-06-26T09:10:21;100691.38;;;27.27;100.00
45275;BME280;31019;43.780;25.948;2023-06-26T09:12:48;100695.44;;;26.98;100.00
45275;BME280;31019;43.780;25.948;2023-06-26T09:15:15;100680.66;;;26.42;100.00
45275;BME280;31019;43.780;25.948;2023-06-26T09:17:44;100701.72;;;26.59;100.00
45275;BME280;31019;43.780;25.948;2023-06-26T09:20:11;100700.13;;;26.35;100.00
45275;BME280;31019;43.780;25.948;2023-06-26T09:22:42;100696.16;;;26.41;100.00
45275;BME280;31019;43.780;25.948;2023-06-26T09:25:10;100705.00;;;26.47;100.00
45275;BME280;31019;43.780;25.948;2023-06-26T09:27:37;100700.91;;;25.82;100.00
45275;BME280;31019;43.780;25.948;2023-06-26T09:30:05;100694.75;;;25.90;100.00
45275;BME280;31019;43.780;25.948;2023-06-26T09:32:34;100704.94;;;25.85;100.00
45275;BME280;31019;43.780;25.948;2023-06-26T09:35:04;100715.19;;;25.51;100.00
45275;BME280;31019;43.780;25.948;2023-06-26T09:37:31;100707.41;;;25.58;100.00
45275;BME280;31019;43.780;25.948;2023-06-26T09:39:59;100713.28;;;25.52;100.00
45275;BME280;31019;43.780;25.948;2023-06-26T09:42:26;100709.25;;;25.49;100.00
45275;BME280;31019;43.780;25.948;2023-06-26T09:44:53;100709.41;;;25.67;100.00
45275;BME280;31019;43.780;25.948;2023-06-26T09:47:20;100705.50;;;25.59;100.00
45275;BME280;31019;43.780;25.948;2023-06-26T09:49:48;100705.94;;;25.75;100.00
45275;BME280;31019;43.780;25.948;2023-06-26T10:05:08;100722.13;;;24.47;100.00
45275;BME280;31019;43.780;25.948;2023-06-26T10:07:37;100728.44;;;25.17;100.00
45275;BME280;31019;43.780;25.948;2023-06-26T10:10:05;100725.88;;;24.18;100.00
45275;BME280;31019;43.780;25.948;2023-06-26T10:12:33;100717.06;;;24.40;100.00
45275;BME280;31019;43.780;25.948;2023-06-26T10:15:02;100719.66;;;23.99;100.00
45275;BME280;31019;43.780;25.948;2023-06-26T10:17:34;100715.63;;;24.29;100.00
45275;BME280;31019;43.780;25.948;2023-06-26T10:20:02;100703.78;;;24.25;100.00
45275;BME280;31019;43.780;25.948;2023-06-26T10:22:37;100707.47;;;24.62;100.00
45275;BME280;31019;43.780;25.948;2023-06-26T10:25:07;100711.41;;;24.56;100.00
45275;BME280;31019;43.780;25.948;2023-06-26T10:27:39;100724.09;;;24.88;100.00
45275;BME280;31019;43.780;25.948;2023-06-26T10:30:13;100713.94;;;24.33;100.00
45275;BME280;31019;43.780;25.948;2023-06-26T10:32:41;100711.41;;;25.11;100.00
45275;BME280;31019;43.780;25.948;2023-06-26T10:35:10;100707.78;;;24.74;100.00
45275;BME280;31019;43.780;25.948;2023-06-26T10:37:42;100707.31;;;24.39;100.00
45275;BME280;31019;43.780;25.948;2023-06-26T10:40:10;100711.41;;;24.23;100.00
45275;BME280;31019;43.780;25.948;2023-06-26T10:42:39;100714.22;;;23.99;100.00
45275;BME280;31019;43.780;25.948;2023-06-26T10:45:10;100710.09;;;23.88;100.00
45275;BME280;31019;43.780;25.948;2023-06-26T10:47:39;100702.88;;;23.59;100.00
45275;BME280;31019;43.780;25.948;2023-06-26T10:50:17;100710.44;;;23.43;100.00
45275;BME280;31019;43.780;25.948;2023-06-26T10:53:13;100709.25;;;23.49;100.00
45275;BME280;31019;43.780;25.948;2023-06-26T10:55:43;100712.81;;;23.45;100.00
45275;BME280;31019;43.780;25.948;2023-06-26T10:58:29;100704.47;;;23.41;100.00
45275;BME280;31019;43.780;25.948;2023-06-26T11:01:18;100714.31;;;23.37;100.00
45275;BME280;31019;43.780;25.948;2023-06-26T11:03:48;100725.56;;;23.25;100.00
45275;BME280;31019;43.780;25.948;2023-06-26T11:06:19;100715.25;;;23.27;100.00
45275;BME280;31019;43.780;25.948;2023-06-26T11:08:48;100726.59;;;22.81;100.00
45275;BME280;31019;43.780;25.948;2023-06-26T11:11:16;100717.47;;;23.01;100.00
45275;BME280;31019;43.780;25.948;2023-06-26T11:13:45;100720.19;;;22.72;100.00
45275;BME280;31019;43.780;25.948;2023-06-26T11:16:12;100715.97;;;22.32;100.00
45275;BME280;31019;43.780;25.948;2023-06-26T11:18:40;100722.22;;;21.93;100.00
45275;BME280;31019;43.780;25.948;2023-06-26T11:21:07;100725.00;;;21.78;100.00
45275;BME280;31019;43.780;25.948;2023-06-26T11:23:36;100730.47;;;22.12;100.00
45275;BME280;31019;43.780;25.948;2023-06-26T11:26:15;100725.56;;;21.80;100.00
45275;BME280;31019;43.780;25.948;2023-06-26T11:28:49;100729.25;;;21.94;100.00
45275;BME280;31019;43.780;25.948;2023-06-26T11:31:24;100730.69;;;22.50;100.00
45275;BME280;31019;43.780;25.948;2023-06-26T11:33:52;100725.38;;;22.39;100.00
45275;BME280;31019;43.780;25.948;2023-06-26T11:36:19;100715.91;;;22.03;100.00
45275;BME280;31019;43.780;25.948;2023-06-26T11:38:46;100718.53;;;22.76;100.00
45275;BME280;31019;43.780;25.948;2023-06-26T11:41:18;100721.91;;;23.35;100.00
45275;BME280;31019;43.780;25.948;2023-06-26T11:43:45;100723.03;;;23.10;100.00
45275;BME280;31019;43.780;25.948;2023-06-26T11:46:12;100716.88;;;23.66;100.00
45275;BME280;31019;43.780;25.948;2023-06-26T11:48:39;100705.13;;;23.76;100.00
45275;BME280;31019;43.780;25.948;2023-06-26T11:51:06;100706.06;;;23.85;100.00
45275;BME280;31019;43.780;25.948;2023-06-26T11:53:39;100701.34;;;23.34;100.00
45275;BME280;31019;43.780;25.948;2023-06-26T11:56:08;100706.09;;;23.99;100.00
45275;BME280;31019;43.780;25.948;2023-06-26T11:58:55;100688.00;;;23.38;100.00
45275;BME280;31019;43.780;25.948;2023-06-26T12:01:23;100692.47;;;23.47;100.00
45275;BME280;31019;43.780;25.948;2023-06-26T12:03:50;100690.25;;;22.88;100.00
45275;BME280;31019;43.780;25.948;2023-06-26T12:06:17;100691.84;;;22.89;100.00
45275;BME280;31019;43.780;25.948;2023-06-26T12:08:45;100697.88;;;23.28;100.00
45275;BME280;31019;43.780;25.948;2023-06-26T12:11:13;100687.31;;;23.08;100.00
45275;BME280;31019;43.780;25.948;2023-06-26T12:13:42;100691.97;;;23.64;100.00
45275;BME280;31019;43.780;25.948;2023-06-26T12:16:09;100679.31;;;23.79;100.00
45275;BME280;31019;43.780;25.948;2023-06-26T12:18:37;100680.13;;;24.12;100.00
45275;BME280;31019;43.780;25.948;2023-06-26T12:21:06;100665.38;;;25.42;100.00
45275;BME280;31019;43.780;25.948;2023-06-26T12:23:33;100664.56;;;26.00;100.00
45275;BME280;31019;43.780;25.948;2023-06-26T12:26:16;100653.56;;;24.83;100.00
45275;BME280;31019;43.780;25.948;2023-06-26T12:28:45;100657.91;;;25.48;100.00
45275;BME280;31019;43.780;25.948;2023-06-26T12:31:13;100655.41;;;25.38;100.00
45275;BME280;31019;43.780;25.948;2023-06-26T12:33:42;100649.19;;;25.59;100.00
45275;BME280;31019;43.780;25.948;2023-06-26T12:36:11;100654.69;;;24.82;100.00
45275;BME280;31019;43.780;25.948;2023-06-26T12:38:38;100640.16;;;25.28;100.00
45275;BME280;31019;43.780;25.948;2023-06-26T12:41:12;100651.81;;;26.10;100.00
45275;BME280;31019;43.780;25.948;2023-06-26T12:43:40;100640.59;;;26.11;100.00
45275;BME280;31019;43.780;25.948;2023-06-26T12:46:09;100651.53;;;27.00;100.00
45275;BME280;31019;43.780;25.948;2023-06-26T12:48:37;100658.91;;;26.19;100.00
45275;BME280;31019;43.780;25.948;2023-06-26T12:51:08;100652.03;;;26.53;100.00
45275;BME280;31019;43.780;25.948;2023-06-26T12:53:36;100657.56;;;26.79;100.00
45275;BME280;31019;43.780;25.948;2023-06-26T12:56:03;100651.75;;;25.78;100.00